sensor_id;sensor_type;location;lat;lon;timestamp;P1;durP1;ratioP1;P2;durP2;ratioP2
20621;SDS011;10470;42.670;23.354;2024-03-06T00:02:17;37.80;;;22.33;;
20621;SDS011;10470;42.670;23.354;2024-03-06T00:04:42;35.30;;;21.20;;
20621;SDS011;10470;42.670;23.354;2024-03-06T00:07:08;33.00;;;20.47;;
20621;SDS011;10470;42.670;23.354;2024-03-06T00:09:33;33.70;;;20.40;;
20621;SDS011;10470;42.670;23.354;2024-03-06T00:11:58;37.40;;;22.10;;
20621;SDS011;10470;42.670;23.354;2024-03-06T00:14:25;32.60;;;19.47;;
20621;SDS011;10470;42.670;23.354;2024-03-06T00:16:50;31.00;;;19.30;;
20621;SDS011;10470;42.670;23.354;2024-03-06T00:19:16;30.63;;;19.30;;
20621;SDS011;10470;42.670;23.354;2024-03-06T00:21:42;31.97;;;18.50;;
20621;SDS011;10470;42.670;23.354;2024-03-06T00:24:07;30.93;;;19.20;;
20621;SDS011;10470;42.670;23.354;2024-03-06T00:26:32;29.73;;;17.57;;
20621;SDS011;10470;42.670;23.354;2024-03-06T00:28:57;32.07;;;17.83;;
20621;SDS011;10470;42.670;23.354;2024-03-06T00:31:23;30.23;;;18.53;;
20621;SDS011;10470;42.670;23.354;2024-03-06T00:33:48;31.50;;;18.43;;
20621;SDS011;10470;42.670;23.354;2024-03-06T00:36:13;32.17;;;19.50;;
20621;SDS011;10470;42.670;23.354;2024-03-06T00:38:39;29.63;;;18.70;;
20621;SDS011;10470;42.670;23.354;2024-03-06T00:41:04;31.37;;;18.57;;
20621;SDS011;10470;42.670;23.354;2024-03-06T00:43:30;31.13;;;18.87;;
20621;SDS011;10470;42.670;23.354;2024-03-06T00:45:55;30.23;;;17.97;;
20621;SDS011;10470;42.670;23.354;2024-03-06T00:48:21;28.33;;;17.70;;
20621;SDS011;10470;42.670;23.354;2024-03-06T00:50:46;30.13;;;18.13;;
20621;SDS011;10470;42.670;23.354;2024-03-06T00:53:11;31.07;;;17.67;;
20621;SDS011;10470;42.670;23.354;2024-03-06T00:55:37;29.67;;;17.63;;
20621;SDS011;10470;42.670;23.354;2024-03-06T00:58:02;30.33;;;17.73;;
20621;SDS011;10470;42.670;23.354;2024-03-06T01:00:28;31.37;;;18.60;;
20621;SDS011;10470;42.670;23.354;2024-03-06T01:02:53;27.70;;;16.63;;
20621;SDS011;10470;42.670;23.354;2024-03-06T01:05:19;27.93;;;17.13;;
20621;SDS011;10470;42.670;23.354;2024-03-06T01:07:44;28.90;;;17.47;;
20621;SDS011;10470;42.670;23.354;2024-03-06T01:10:09;27.97;;;17.23;;
20621;SDS011;10470;42.670;23.354;2024-03-06T01:12:35;27.00;;;17.03;;
20621;SDS011;10470;42.670;23.354;2024-03-06T01:15:01;30.87;;;18.03;;
20621;SDS011;10470;42.670;23.354;2024-03-06T01:17:26;27.37;;;17.37;;
20621;SDS011;10470;42.670;23.354;2024-03-06T01:19:51;29.83;;;17.20;;
20621;SDS011;10470;42.670;23.354;2024-03-06T01:22:17;28.53;;;17.50;;
20621;SDS011;10470;42.670;23.354;2024-03-06T01:24:42;31.23;;;18.57;;
20621;SDS011;10470;42.670;23.354;2024-03-06T01:27:08;31.03;;;18.90;;
20621;SDS011;10470;42.670;23.354;2024-03-06T01:29:33;31.57;;;18.00;;
20621;SDS011;10470;42.670;23.354;2024-03-06T01:31:58;30.43;;;17.97;;
20621;SDS011;10470;42.670;23.354;2024-03-06T01:34:24;29.23;;;17.70;;
20621;SDS011;10470;42.670;23.354;2024-03-06T01:36:50;32.73;;;19.17;;
20621;SDS011;10470;42.670;23.354;2024-03-06T01:39:15;33.63;;;19.10;;
20621;SDS011;10470;42.670;23.354;2024-03-06T01:41:47;29.13;;;18.40;;
20621;SDS011;10470;42.670;23.354;2024-03-06T01:44:13;28.40;;;17.13;;
20621;SDS011;10470;42.670;23.354;2024-03-06T01:46:39;30.17;;;18.33;;
20621;SDS011;10470;42.670;23.354;2024-03-06T01:49:04;31.37;;;18.13;;
20621;SDS011;10470;42.670;23.354;2024-03-06T01:51:30;29.23;;;17.20;;
20621;SDS011;10470;42.670;23.354;2024-03-06T01:53:55;28.97;;;17.60;;
20621;SDS011;10470;42.670;23.354;2024-03-06T01:56:21;32.13;;;17.33;;
20621;SDS011;10470;42.670;23.354;2024-03-06T01:58:47;31.27;;;18.60;;
20621;SDS011;10470;42.670;23.354;2024-03-06T02:01:12;33.03;;;18.10;;
20621;SDS011;10470;42.670;23.354;2024-03-06T02:03:38;29.60;;;17.67;;
20621;SDS011;10470;42.670;23.354;2024-03-06T02:06:04;31.93;;;19.70;;
20621;SDS011;10470;42.670;23.354;2024-03-06T02:08:30;30.53;;;18.67;;
20621;SDS011;10470;42.670;23.354;2024-03-06T02:10:55;35.17;;;20.43;;
20621;SDS011;10470;42.670;23.354;2024-03-06T02:13:21;38.80;;;19.80;;
20621;SDS011;10470;42.670;23.354;2024-03-06T02:15:46;34.30;;;21.10;;
20621;SDS011;10470;42.670;23.354;2024-03-06T02:18:11;36.30;;;21.10;;
20621;SDS011;10470;42.670;23.354;2024-03-06T02:20:40;36.10;;;20.63;;
20621;SDS011;10470;42.670;23.354;2024-03-06T02:23:06;35.60;;;20.83;;
20621;SDS011;10470;42.670;23.354;2024-03-06T02:25:32;33.83;;;19.57;;
20621;SDS011;10470;42.670;23.354;2024-03-06T02:27:57;38.00;;;21.33;;
20621;SDS011;10470;42.670;23.354;2024-03-06T02:30:24;34.50;;;20.60;;
20621;SDS011;10470;42.670;23.354;2024-03-06T02:32:49;36.83;;;21.27;;
20621;SDS011;10470;42.670;23.354;2024-03-06T02:35:14;38.90;;;21.73;;
20621;SDS011;10470;42.670;23.354;2024-03-06T02:37:41;33.60;;;20.77;;
20621;SDS011;10470;42.670;23.354;2024-03-06T02:40:06;36.07;;;20.33;;
20621;SDS011;10470;42.670;23.354;2024-03-06T02:42:32;35.33;;;20.13;;
20621;SDS011;10470;42.670;23.354;2024-03-06T02:44:57;44.27;;;25.20;;
20621;SDS011;10470;42.670;23.354;2024-03-06T02:47:23;40.00;;;22.30;;
20621;SDS011;10470;42.670;23.354;2024-03-06T02:49:48;39.00;;;22.13;;
20621;SDS011;10470;42.670;23.354;2024-03-06T02:52:13;37.60;;;22.43;;
20621;SDS011;10470;42.670;23.354;2024-03-06T02:54:40;38.70;;;21.60;;
20621;SDS011;10470;42.670;23.354;2024-03-06T02:57:06;38.97;;;22.20;;
20621;SDS011;10470;42.670;23.354;2024-03-06T02:59:32;39.13;;;22.17;;
20621;SDS011;10470;42.670;23.354;2024-03-06T03:01:57;40.37;;;21.70;;
20621;SDS011;10470;42.670;23.354;2024-03-06T03:04:23;37.23;;;22.53;;
20621;SDS011;10470;42.670;23.354;2024-03-06T03:06:48;39.67;;;21.63;;
20621;SDS011;10470;42.670;23.354;2024-03-06T03:09:13;33.57;;;20.20;;
20621;SDS011;10470;42.670;23.354;2024-03-06T03:11:39;36.67;;;21.57;;
20621;SDS011;10470;42.670;23.354;2024-03-06T03:14:04;35.83;;;19.83;;
20621;SDS011;10470;42.670;23.354;2024-03-06T03:16:29;37.97;;;20.20;;
20621;SDS011;10470;42.670;23.354;2024-03-06T03:18:55;38.63;;;21.17;;
20621;SDS011;10470;42.670;23.354;2024-03-06T03:21:20;33.97;;;20.37;;
20621;SDS011;10470;42.670;23.354;2024-03-06T03:23:46;33.20;;;19.40;;
20621;SDS011;10470;42.670;23.354;2024-03-06T03:26:12;33.67;;;19.90;;
20621;SDS011;10470;42.670;23.354;2024-03-06T03:28:40;34.23;;;19.77;;
20621;SDS011;10470;42.670;23.354;2024-03-06T03:31:09;33.77;;;20.93;;
20621;SDS011;10470;42.670;23.354;2024-03-06T03:33:41;35.60;;;20.70;;
20621;SDS011;10470;42.670;23.354;2024-03-06T03:36:07;35.90;;;20.23;;
20621;SDS011;10470;42.670;23.354;2024-03-06T03:38:32;36.67;;;21.03;;
20621;SDS011;10470;42.670;23.354;2024-03-06T03:41:00;35.23;;;20.37;;
20621;SDS011;10470;42.670;23.354;2024-03-06T03:43:26;36.47;;;21.00;;
20621;SDS011;10470;42.670;23.354;2024-03-06T03:45:51;37.53;;;21.50;;
20621;SDS011;10470;42.670;23.354;2024-03-06T03:48:16;36.97;;;21.17;;
20621;SDS011;10470;42.670;23.354;2024-03-06T03:50:42;31.40;;;19.53;;
20621;SDS011;10470;42.670;23.354;2024-03-06T03:53:07;32.27;;;20.07;;
20621;SDS011;10470;42.670;23.354;2024-03-06T03:55:32;33.93;;;19.57;;
20621;SDS011;10470;42.670;23.354;2024-03-06T03:57:58;34.80;;;20.23;;
20621;SDS011;10470;42.670;23.354;2024-03-06T04:00:23;35.30;;;20.10;;
20621;SDS011;10470;42.670;23.354;2024-03-06T04:02:49;35.50;;;19.97;;
20621;SDS011;10470;42.670;23.354;2024-03-06T04:05:14;34.77;;;20.43;;
20621;SDS011;10470;42.670;23.354;2024-03-06T04:07:39;36.17;;;19.93;;
20621;SDS011;10470;42.670;23.354;2024-03-06T04:10:05;34.03;;;20.27;;
20621;SDS011;10470;42.670;23.354;2024-03-06T04:12:31;32.43;;;19.90;;
20621;SDS011;10470;42.670;23.354;2024-03-06T04:14:56;32.93;;;18.57;;
20621;SDS011;10470;42.670;23.354;2024-03-06T04:17:22;34.50;;;19.47;;
20621;SDS011;10470;42.670;23.354;2024-03-06T04:19:47;35.97;;;20.97;;
20621;SDS011;10470;42.670;23.354;2024-03-06T04:22:13;31.33;;;18.83;;
20621;SDS011;10470;42.670;23.354;2024-03-06T04:24:40;35.77;;;20.40;;
20621;SDS011;10470;42.670;23.354;2024-03-06T04:27:06;36.07;;;21.20;;
20621;SDS011;10470;42.670;23.354;2024-03-06T04:29:31;37.33;;;20.10;;
20621;SDS011;10470;42.670;23.354;2024-03-06T04:31:57;32.77;;;20.10;;
20621;SDS011;10470;42.670;23.354;2024-03-06T04:34:22;35.83;;;20.43;;
20621;SDS011;10470;42.670;23.354;2024-03-06T04:36:48;39.67;;;21.13;;
20621;SDS011;10470;42.670;23.354;2024-03-06T04:39:13;34.97;;;19.93;;
20621;SDS011;10470;42.670;23.354;2024-03-06T04:41:39;36.70;;;20.57;;
20621;SDS011;10470;42.670;23.354;2024-03-06T04:44:05;37.93;;;20.90;;
20621;SDS011;10470;42.670;23.354;2024-03-06T04:46:31;34.67;;;21.03;;
20621;SDS011;10470;42.670;23.354;2024-03-06T04:48:56;40.87;;;20.37;;
20621;SDS011;10470;42.670;23.354;2024-03-06T04:51:22;38.13;;;22.43;;
20621;SDS011;10470;42.670;23.354;2024-03-06T04:53:47;35.53;;;20.23;;
20621;SDS011;10470;42.670;23.354;2024-03-06T04:56:13;38.87;;;20.80;;
20621;SDS011;10470;42.670;23.354;2024-03-06T04:58:38;37.53;;;20.50;;
20621;SDS011;10470;42.670;23.354;2024-03-06T05:01:04;36.30;;;21.37;;
20621;SDS011;10470;42.670;23.354;2024-03-06T05:03:29;33.73;;;20.30;;
20621;SDS011;10470;42.670;23.354;2024-03-06T05:05:54;36.93;;;20.60;;
20621;SDS011;10470;42.670;23.354;2024-03-06T05:08:20;39.90;;;21.60;;
20621;SDS011;10470;42.670;23.354;2024-03-06T05:10:45;36.97;;;21.50;;
20621;SDS011;10470;42.670;23.354;2024-03-06T05:13:11;39.40;;;22.13;;
20621;SDS011;10470;42.670;23.354;2024-03-06T05:15:36;41.17;;;21.73;;
20621;SDS011;10470;42.670;23.354;2024-03-06T05:18:01;48.43;;;25.37;;
20621;SDS011;10470;42.670;23.354;2024-03-06T05:20:27;43.63;;;23.00;;
20621;SDS011;10470;42.670;23.354;2024-03-06T05:22:53;40.20;;;22.30;;
20621;SDS011;10470;42.670;23.354;2024-03-06T05:25:18;41.47;;;22.97;;
20621;SDS011;10470;42.670;23.354;2024-03-06T05:27:43;45.23;;;23.77;;
20621;SDS011;10470;42.670;23.354;2024-03-06T05:30:09;45.30;;;22.30;;
20621;SDS011;10470;42.670;23.354;2024-03-06T05:32:34;41.33;;;21.23;;
20621;SDS011;10470;42.670;23.354;2024-03-06T05:34:59;45.13;;;22.10;;
20621;SDS011;10470;42.670;23.354;2024-03-06T05:37:25;38.83;;;21.23;;
20621;SDS011;10470;42.670;23.354;2024-03-06T05:39:50;42.23;;;21.63;;
20621;SDS011;10470;42.670;23.354;2024-03-06T05:42:15;37.97;;;22.47;;
20621;SDS011;10470;42.670;23.354;2024-03-06T05:44:41;49.23;;;23.00;;
20621;SDS011;10470;42.670;23.354;2024-03-06T05:47:06;42.93;;;22.30;;
20621;SDS011;10470;42.670;23.354;2024-03-06T05:49:32;36.27;;;21.60;;
20621;SDS011;10470;42.670;23.354;2024-03-06T05:51:57;38.67;;;21.83;;
20621;SDS011;10470;42.670;23.354;2024-03-06T05:54:23;35.30;;;20.60;;
20621;SDS011;10470;42.670;23.354;2024-03-06T05:56:48;37.63;;;20.70;;
20621;SDS011;10470;42.670;23.354;2024-03-06T05:59:20;39.77;;;20.70;;
20621;SDS011;10470;42.670;23.354;2024-03-06T06:01:45;38.67;;;20.67;;
20621;SDS011;10470;42.670;23.354;2024-03-06T06:04:11;36.20;;;21.57;;
20621;SDS011;10470;42.670;23.354;2024-03-06T06:06:36;41.43;;;21.87;;
20621;SDS011;10470;42.670;23.354;2024-03-06T06:09:02;40.47;;;21.83;;
20621;SDS011;10470;42.670;23.354;2024-03-06T06:11:30;54.90;;;27.30;;
20621;SDS011;10470;42.670;23.354;2024-03-06T06:13:55;49.23;;;26.27;;
20621;SDS011;10470;42.670;23.354;2024-03-06T06:16:20;47.60;;;23.90;;
20621;SDS011;10470;42.670;23.354;2024-03-06T06:18:46;45.27;;;24.40;;
20621;SDS011;10470;42.670;23.354;2024-03-06T06:21:11;43.70;;;23.63;;
20621;SDS011;10470;42.670;23.354;2024-03-06T06:23:36;41.70;;;23.10;;
20621;SDS011;10470;42.670;23.354;2024-03-06T06:26:02;48.50;;;22.67;;
20621;SDS011;10470;42.670;23.354;2024-03-06T06:28:27;44.17;;;23.50;;
20621;SDS011;10470;42.670;23.354;2024-03-06T06:30:53;51.80;;;26.80;;
20621;SDS011;10470;42.670;23.354;2024-03-06T06:33:19;46.73;;;26.57;;
20621;SDS011;10470;42.670;23.354;2024-03-06T06:35:44;50.80;;;27.80;;
20621;SDS011;10470;42.670;23.354;2024-03-06T06:38:10;55.47;;;28.90;;
20621;SDS011;10470;42.670;23.354;2024-03-06T06:40:35;62.30;;;30.20;;
20621;SDS011;10470;42.670;23.354;2024-03-06T06:43:01;51.10;;;28.67;;
20621;SDS011;10470;42.670;23.354;2024-03-06T06:45:26;47.90;;;29.20;;
20621;SDS011;10470;42.670;23.354;2024-03-06T06:47:52;43.57;;;27.60;;
20621;SDS011;10470;42.670;23.354;2024-03-06T06:50:18;46.40;;;27.03;;
20621;SDS011;10470;42.670;23.354;2024-03-06T06:52:46;43.87;;;26.17;;
20621;SDS011;10470;42.670;23.354;2024-03-06T06:55:12;48.03;;;27.97;;
20621;SDS011;10470;42.670;23.354;2024-03-06T06:57:38;48.87;;;28.57;;
20621;SDS011;10470;42.670;23.354;2024-03-06T07:00:04;43.13;;;27.80;;
20621;SDS011;10470;42.670;23.354;2024-03-06T07:02:38;48.57;;;27.60;;
20621;SDS011;10470;42.670;23.354;2024-03-06T07:05:04;48.93;;;27.40;;
20621;SDS011;10470;42.670;23.354;2024-03-06T07:07:30;52.87;;;30.33;;
20621;SDS011;10470;42.670;23.354;2024-03-06T07:09:55;48.97;;;25.93;;
20621;SDS011;10470;42.670;23.354;2024-03-06T07:12:20;43.57;;;24.87;;
20621;SDS011;10470;42.670;23.354;2024-03-06T07:14:47;40.00;;;24.33;;
20621;SDS011;10470;42.670;23.354;2024-03-06T07:17:12;43.33;;;25.93;;
20621;SDS011;10470;42.670;23.354;2024-03-06T07:19:37;43.40;;;24.97;;
20621;SDS011;10470;42.670;23.354;2024-03-06T07:22:04;45.20;;;24.90;;
20621;SDS011;10470;42.670;23.354;2024-03-06T07:24:29;44.17;;;25.00;;
20621;SDS011;10470;42.670;23.354;2024-03-06T07:26:54;42.53;;;24.77;;
20621;SDS011;10470;42.670;23.354;2024-03-06T07:29:20;46.10;;;25.13;;
20621;SDS011;10470;42.670;23.354;2024-03-06T07:31:45;44.93;;;25.90;;
20621;SDS011;10470;42.670;23.354;2024-03-06T07:34:10;57.20;;;26.03;;
20621;SDS011;10470;42.670;23.354;2024-03-06T07:36:36;44.60;;;26.30;;
20621;SDS011;10470;42.670;23.354;2024-03-06T07:39:02;42.33;;;25.50;;
20621;SDS011;10470;42.670;23.354;2024-03-06T07:41:27;42.67;;;24.20;;
20621;SDS011;10470;42.670;23.354;2024-03-06T07:43:53;40.57;;;25.00;;
20621;SDS011;10470;42.670;23.354;2024-03-06T07:46:18;41.77;;;24.87;;
20621;SDS011;10470;42.670;23.354;2024-03-06T07:48:43;41.17;;;25.33;;
20621;SDS011;10470;42.670;23.354;2024-03-06T07:51:09;44.87;;;25.73;;
20621;SDS011;10470;42.670;23.354;2024-03-06T07:53:34;46.47;;;25.23;;
20621;SDS011;10470;42.670;23.354;2024-03-06T07:56:00;44.67;;;25.07;;
20621;SDS011;10470;42.670;23.354;2024-03-06T07:58:25;43.00;;;24.47;;
20621;SDS011;10470;42.670;23.354;2024-03-06T08:00:51;39.10;;;24.20;;
20621;SDS011;10470;42.670;23.354;2024-03-06T08:03:20;42.17;;;24.40;;
20621;SDS011;10470;42.670;23.354;2024-03-06T08:05:45;44.87;;;25.93;;
20621;SDS011;10470;42.670;23.354;2024-03-06T08:08:11;43.33;;;24.40;;
20621;SDS011;10470;42.670;23.354;2024-03-06T08:10:36;48.07;;;25.50;;
20621;SDS011;10470;42.670;23.354;2024-03-06T08:13:01;41.60;;;22.90;;
20621;SDS011;10470;42.670;23.354;2024-03-06T08:15:28;38.90;;;22.27;;
20621;SDS011;10470;42.670;23.354;2024-03-06T08:17:53;45.23;;;23.03;;
20621;SDS011;10470;42.670;23.354;2024-03-06T08:20:18;38.77;;;22.67;;
20621;SDS011;10470;42.670;23.354;2024-03-06T08:22:44;39.17;;;22.63;;
20621;SDS011;10470;42.670;23.354;2024-03-06T08:25:10;43.90;;;23.43;;
20621;SDS011;10470;42.670;23.354;2024-03-06T08:27:36;39.27;;;23.93;;
20621;SDS011;10470;42.670;23.354;2024-03-06T08:30:05;40.57;;;23.07;;
20621;SDS011;10470;42.670;23.354;2024-03-06T08:32:31;41.73;;;23.47;;
20621;SDS011;10470;42.670;23.354;2024-03-06T08:34:58;37.93;;;22.73;;
20621;SDS011;10470;42.670;23.354;2024-03-06T08:37:24;39.50;;;25.27;;
20621;SDS011;10470;42.670;23.354;2024-03-06T08:39:49;40.87;;;24.17;;
20621;SDS011;10470;42.670;23.354;2024-03-06T08:42:14;39.17;;;23.70;;
20621;SDS011;10470;42.670;23.354;2024-03-06T08:44:43;42.87;;;24.80;;
20621;SDS011;10470;42.670;23.354;2024-03-06T08:47:09;40.40;;;23.70;;
20621;SDS011;10470;42.670;23.354;2024-03-06T08:49:34;39.60;;;23.10;;
20621;SDS011;10470;42.670;23.354;2024-03-06T08:51:59;39.63;;;23.13;;
20621;SDS011;10470;42.670;23.354;2024-03-06T08:54:24;42.87;;;23.40;;
20621;SDS011;10470;42.670;23.354;2024-03-06T08:56:50;34.30;;;22.50;;
20621;SDS011;10470;42.670;23.354;2024-03-06T08:59:18;34.67;;;20.70;;
20621;SDS011;10470;42.670;23.354;2024-03-06T09:01:44;32.37;;;20.17;;
20621;SDS011;10470;42.670;23.354;2024-03-06T09:04:09;33.20;;;20.07;;
20621;SDS011;10470;42.670;23.354;2024-03-06T09:06:34;33.90;;;20.87;;
20621;SDS011;10470;42.670;23.354;2024-03-06T09:09:00;38.67;;;21.03;;
20621;SDS011;10470;42.670;23.354;2024-03-06T09:11:25;32.30;;;20.50;;
20621;SDS011;10470;42.670;23.354;2024-03-06T09:13:50;30.83;;;19.33;;
20621;SDS011;10470;42.670;23.354;2024-03-06T09:16:16;32.40;;;19.13;;
20621;SDS011;10470;42.670;23.354;2024-03-06T09:18:43;30.03;;;18.43;;
20621;SDS011;10470;42.670;23.354;2024-03-06T09:21:08;28.20;;;17.40;;
20621;SDS011;10470;42.670;23.354;2024-03-06T09:23:33;26.63;;;15.77;;
20621;SDS011;10470;42.670;23.354;2024-03-06T09:25:59;24.47;;;16.30;;
20621;SDS011;10470;42.670;23.354;2024-03-06T09:28:24;23.30;;;14.80;;
20621;SDS011;10470;42.670;23.354;2024-03-06T09:30:50;27.77;;;15.83;;
20621;SDS011;10470;42.670;23.354;2024-03-06T09:33:15;27.73;;;16.27;;
20621;SDS011;10470;42.670;23.354;2024-03-06T09:35:40;22.87;;;15.50;;
20621;SDS011;10470;42.670;23.354;2024-03-06T09:38:10;25.87;;;15.10;;
20621;SDS011;10470;42.670;23.354;2024-03-06T09:40:36;29.17;;;15.67;;
20621;SDS011;10470;42.670;23.354;2024-03-06T09:43:01;24.10;;;14.70;;
20621;SDS011;10470;42.670;23.354;2024-03-06T09:45:27;24.40;;;14.47;;
20621;SDS011;10470;42.670;23.354;2024-03-06T09:47:53;28.67;;;14.87;;
20621;SDS011;10470;42.670;23.354;2024-03-06T09:50:18;26.23;;;13.93;;
20621;SDS011;10470;42.670;23.354;2024-03-06T09:52:50;17.83;;;11.73;;
20621;SDS011;10470;42.670;23.354;2024-03-06T09:55:16;21.60;;;11.90;;
20621;SDS011;10470;42.670;23.354;2024-03-06T09:57:41;18.93;;;10.53;;
20621;SDS011;10470;42.670;23.354;2024-03-06T10:00:07;20.13;;;11.37;;
20621;SDS011;10470;42.670;23.354;2024-03-06T10:02:41;18.47;;;11.53;;
20621;SDS011;10470;42.670;23.354;2024-03-06T10:05:21;16.40;;;11.20;;
20621;SDS011;10470;42.670;23.354;2024-03-06T10:07:46;19.33;;;11.33;;
20621;SDS011;10470;42.670;23.354;2024-03-06T10:10:12;18.93;;;11.13;;
20621;SDS011;10470;42.670;23.354;2024-03-06T10:12:38;16.40;;;11.37;;
20621;SDS011;10470;42.670;23.354;2024-03-06T10:15:04;15.47;;;9.47;;
20621;SDS011;10470;42.670;23.354;2024-03-06T10:17:29;24.13;;;12.67;;
20621;SDS011;10470;42.670;23.354;2024-03-06T10:19:55;22.50;;;11.43;;
20621;SDS011;10470;42.670;23.354;2024-03-06T10:22:20;16.87;;;11.50;;
20621;SDS011;10470;42.670;23.354;2024-03-06T10:24:45;19.07;;;10.93;;
20621;SDS011;10470;42.670;23.354;2024-03-06T10:27:14;14.70;;;10.03;;
20621;SDS011;10470;42.670;23.354;2024-03-06T10:29:40;14.87;;;8.53;;
20621;SDS011;10470;42.670;23.354;2024-03-06T10:32:05;16.17;;;9.73;;
20621;SDS011;10470;42.670;23.354;2024-03-06T10:34:31;14.17;;;8.57;;
20621;SDS011;10470;42.670;23.354;2024-03-06T10:37:00;12.30;;;7.60;;
20621;SDS011;10470;42.670;23.354;2024-03-06T10:39:26;15.63;;;8.17;;
20621;SDS011;10470;42.670;23.354;2024-03-06T10:41:55;10.97;;;7.93;;
20621;SDS011;10470;42.670;23.354;2024-03-06T10:44:24;14.17;;;9.20;;
20621;SDS011;10470;42.670;23.354;2024-03-06T10:47:00;13.90;;;9.23;;
20621;SDS011;10470;42.670;23.354;2024-03-06T10:49:26;16.03;;;9.80;;
20621;SDS011;10470;42.670;23.354;2024-03-06T10:51:54;13.43;;;9.10;;
20621;SDS011;10470;42.670;23.354;2024-03-06T10:54:22;10.97;;;8.43;;
20621;SDS011;10470;42.670;23.354;2024-03-06T10:56:48;13.50;;;8.70;;
20621;SDS011;10470;42.670;23.354;2024-03-06T10:59:13;19.30;;;8.90;;
20621;SDS011;10470;42.670;23.354;2024-03-06T11:01:39;16.37;;;9.37;;
20621;SDS011;10470;42.670;23.354;2024-03-06T11:04:05;13.50;;;7.90;;
20621;SDS011;10470;42.670;23.354;2024-03-06T11:06:30;11.93;;;8.00;;
20621;SDS011;10470;42.670;23.354;2024-03-06T11:08:56;12.07;;;7.40;;
20621;SDS011;10470;42.670;23.354;2024-03-06T11:11:22;15.27;;;10.20;;
20621;SDS011;10470;42.670;23.354;2024-03-06T11:13:47;15.97;;;9.20;;
20621;SDS011;10470;42.670;23.354;2024-03-06T11:16:13;14.97;;;8.13;;
20621;SDS011;10470;42.670;23.354;2024-03-06T11:23:29;14.27;;;8.93;;
20621;SDS011;10470;42.670;23.354;2024-03-06T11:28:23;10.43;;;7.37;;
20621;SDS011;10470;42.670;23.354;2024-03-06T11:30:55;10.60;;;7.27;;
20621;SDS011;10470;42.670;23.354;2024-03-06T11:33:23;11.10;;;7.40;;
20621;SDS011;10470;42.670;23.354;2024-03-06T11:38:32;14.93;;;7.97;;
20621;SDS011;10470;42.670;23.354;2024-03-06T11:41:02;14.33;;;7.30;;
20621;SDS011;10470;42.670;23.354;2024-03-06T11:43:29;9.07;;;6.60;;
20621;SDS011;10470;42.670;23.354;2024-03-06T11:46:07;8.73;;;6.60;;
20621;SDS011;10470;42.670;23.354;2024-03-06T11:48:33;9.43;;;6.90;;
20621;SDS011;10470;42.670;23.354;2024-03-06T11:50:59;8.73;;;7.20;;
20621;SDS011;10470;42.670;23.354;2024-03-06T11:53:24;10.47;;;7.37;;
20621;SDS011;10470;42.670;23.354;2024-03-06T11:55:50;8.93;;;6.70;;
20621;SDS011;10470;42.670;23.354;2024-03-06T11:58:16;12.67;;;7.27;;
20621;SDS011;10470;42.670;23.354;2024-03-06T12:00:42;9.87;;;7.60;;
20621;SDS011;10470;42.670;23.354;2024-03-06T12:03:10;10.93;;;8.07;;
20621;SDS011;10470;42.670;23.354;2024-03-06T12:05:36;8.07;;;6.97;;
20621;SDS011;10470;42.670;23.354;2024-03-06T12:08:02;10.87;;;7.13;;
20621;SDS011;10470;42.670;23.354;2024-03-06T12:10:28;9.00;;;6.80;;
20621;SDS011;10470;42.670;23.354;2024-03-06T12:12:53;11.63;;;7.33;;
20621;SDS011;10470;42.670;23.354;2024-03-06T12:15:19;11.23;;;8.27;;
20621;SDS011;10470;42.670;23.354;2024-03-06T12:17:44;9.17;;;7.00;;
20621;SDS011;10470;42.670;23.354;2024-03-06T12:20:15;11.27;;;7.23;;
20621;SDS011;10470;42.670;23.354;2024-03-06T12:22:50;10.60;;;7.00;;
20621;SDS011;10470;42.670;23.354;2024-03-06T12:25:23;9.10;;;7.03;;
20621;SDS011;10470;42.670;23.354;2024-03-06T12:27:48;14.83;;;7.37;;
20621;SDS011;10470;42.670;23.354;2024-03-06T12:30:18;9.43;;;7.30;;
20621;SDS011;10470;42.670;23.354;2024-03-06T12:33:04;11.20;;;7.50;;
20621;SDS011;10470;42.670;23.354;2024-03-06T12:35:29;10.67;;;7.40;;
20621;SDS011;10470;42.670;23.354;2024-03-06T12:37:55;10.80;;;7.63;;
20621;SDS011;10470;42.670;23.354;2024-03-06T12:40:20;10.60;;;7.57;;
20621;SDS011;10470;42.670;23.354;2024-03-06T12:42:46;16.37;;;8.10;;
20621;SDS011;10470;42.670;23.354;2024-03-06T12:45:12;10.53;;;6.63;;
20621;SDS011;10470;42.670;23.354;2024-03-06T12:47:40;12.40;;;6.17;;
20621;SDS011;10470;42.670;23.354;2024-03-06T12:50:06;9.80;;;6.20;;
20621;SDS011;10470;42.670;23.354;2024-03-06T12:52:33;12.53;;;6.80;;
20621;SDS011;10470;42.670;23.354;2024-03-06T12:54:59;13.00;;;7.27;;
20621;SDS011;10470;42.670;23.354;2024-03-06T12:57:24;11.30;;;6.90;;
20621;SDS011;10470;42.670;23.354;2024-03-06T12:59:49;12.27;;;7.10;;
20621;SDS011;10470;42.670;23.354;2024-03-06T13:02:15;10.27;;;7.10;;
20621;SDS011;10470;42.670;23.354;2024-03-06T13:04:40;10.90;;;6.57;;
20621;SDS011;10470;42.670;23.354;2024-03-06T13:07:05;7.23;;;6.53;;
20621;SDS011;10470;42.670;23.354;2024-03-06T13:09:31;9.03;;;5.77;;
20621;SDS011;10470;42.670;23.354;2024-03-06T13:11:56;8.37;;;5.40;;
20621;SDS011;10470;42.670;23.354;2024-03-06T13:14:21;7.53;;;5.47;;
20621;SDS011;10470;42.670;23.354;2024-03-06T13:16:46;20.40;;;5.90;;
20621;SDS011;10470;42.670;23.354;2024-03-06T13:19:12;13.47;;;5.97;;
20621;SDS011;10470;42.670;23.354;2024-03-06T13:21:37;7.80;;;4.90;;
20621;SDS011;10470;42.670;23.354;2024-03-06T13:24:03;7.87;;;5.30;;
20621;SDS011;10470;42.670;23.354;2024-03-06T13:26:28;6.90;;;5.00;;
20621;SDS011;10470;42.670;23.354;2024-03-06T13:28:53;5.07;;;4.07;;
20621;SDS011;10470;42.670;23.354;2024-03-06T13:31:19;4.70;;;4.27;;
20621;SDS011;10470;42.670;23.354;2024-03-06T13:33:44;4.83;;;3.97;;
20621;SDS011;10470;42.670;23.354;2024-03-06T13:36:09;5.90;;;4.90;;
20621;SDS011;10470;42.670;23.354;2024-03-06T13:38:35;6.30;;;4.40;;
20621;SDS011;10470;42.670;23.354;2024-03-06T13:41:00;5.70;;;4.27;;
20621;SDS011;10470;42.670;23.354;2024-03-06T13:43:27;6.73;;;4.27;;
20621;SDS011;10470;42.670;23.354;2024-03-06T13:45:53;6.00;;;4.07;;
20621;SDS011;10470;42.670;23.354;2024-03-06T13:48:19;7.33;;;4.17;;
20621;SDS011;10470;42.670;23.354;2024-03-06T13:50:44;9.87;;;5.30;;
20621;SDS011;10470;42.670;23.354;2024-03-06T13:53:10;6.17;;;4.67;;
20621;SDS011;10470;42.670;23.354;2024-03-06T13:55:35;7.67;;;5.40;;
20621;SDS011;10470;42.670;23.354;2024-03-06T13:58:01;7.43;;;5.80;;
20621;SDS011;10470;42.670;23.354;2024-03-06T14:00:26;9.53;;;6.03;;
20621;SDS011;10470;42.670;23.354;2024-03-06T14:02:52;10.23;;;5.47;;
20621;SDS011;10470;42.670;23.354;2024-03-06T14:05:17;7.83;;;5.37;;
20621;SDS011;10470;42.670;23.354;2024-03-06T14:07:44;7.47;;;5.83;;
20621;SDS011;10470;42.670;23.354;2024-03-06T14:10:10;7.43;;;6.03;;
20621;SDS011;10470;42.670;23.354;2024-03-06T14:12:35;7.97;;;5.80;;
20621;SDS011;10470;42.670;23.354;2024-03-06T14:15:01;7.27;;;5.33;;
20621;SDS011;10470;42.670;23.354;2024-03-06T14:17:26;8.53;;;5.30;;